createdAt,value
2022-08-27T00:02:24.784Z,21.63
2022-08-27T00:04:54.805Z,21.52
2022-08-27T00:07:23.168Z,21.56
2022-08-27T00:09:51.607Z,21.63
2022-08-27T00:12:20.120Z,21.33
2022-08-27T00:14:48.741Z,21.33
2022-08-27T00:17:17.653Z,21.45
2022-08-27T00:19:46.012Z,21.61
2022-08-27T00:22:15.862Z,21.61
2022-08-27T00:24:48.712Z,21.67
2022-08-27T00:27:18.168Z,21.51
2022-08-27T00:29:47.261Z,21.55
2022-08-27T00:32:15.827Z,21.46
2022-08-27T00:34:44.341Z,20.99
2022-08-27T00:37:12.759Z,21.15
2022-08-27T00:39:42.550Z,21.26
2022-08-27T00:42:11.090Z,21.29
2022-08-27T00:44:39.834Z,21.30
2022-08-27T00:47:12.535Z,21.29
2022-08-27T00:49:45.793Z,21.21
2022-08-27T00:52:20.204Z,21.14
2022-08-27T00:54:50.831Z,21.22
2022-08-27T00:57:19.607Z,21.33
2022-08-27T00:59:48.210Z,21.13
2022-08-27T01:02:26.203Z,21.24
2022-08-27T01:05:02.837Z,20.98
2022-08-27T01:07:33.208Z,21.03
2022-08-27T01:10:07.269Z,20.99
2022-08-27T01:12:36.970Z,21.05
2022-08-27T01:15:11.055Z,20.97
2022-08-27T01:17:43.625Z,20.70
2022-08-27T01:20:20.259Z,20.45
2022-08-27T01:22:57.520Z,20.34
2022-08-27T01:25:28.879Z,20.22
2022-08-27T01:28:01.638Z,20.54
2022-08-27T01:30:31.374Z,20.15
2022-08-27T01:32:59.884Z,20.55
2022-08-27T01:35:28.356Z,20.59
2022-08-27T01:37:57.323Z,20.64
2022-08-27T01:40:27.196Z,20.69
2022-08-27T01:42:58.387Z,20.37
2022-08-27T01:45:29.694Z,20.77
2022-08-27T01:47:59.028Z,20.72
2022-08-27T01:50:29.994Z,20.58
2022-08-27T01:52:58.535Z,20.45
2022-08-27T01:55:28.557Z,20.31
2022-08-27T01:57:57.820Z,20.25
2022-08-27T02:00:30.127Z,20.15
2022-08-27T02:02:59.739Z,20.24
2022-08-27T02:05:29.320Z,20.23
2022-08-27T02:07:58.162Z,19.88
2022-08-27T02:10:31.991Z,20.22
2022-08-27T02:13:00.392Z,20.10
2022-08-27T02:15:29.404Z,20.11
2022-08-27T02:17:57.968Z,20.13
2022-08-27T02:20:29.361Z,20.10
2022-08-27T02:22:58.321Z,19.92
2022-08-27T02:25:29.102Z,19.94
2022-08-27T02:28:00.391Z,19.93
2022-08-27T02:30:30.140Z,19.84
2022-08-27T02:32:58.443Z,19.85
2022-08-27T02:35:26.833Z,19.76
2022-08-27T02:37:55.188Z,19.61
2022-08-27T02:40:25.674Z,19.69
2022-08-27T02:42:55.546Z,19.77
2022-08-27T02:45:23.876Z,19.69
2022-08-27T02:47:52.356Z,19.66
2022-08-27T02:50:20.917Z,19.72
2022-08-27T02:52:55.348Z,19.58
2022-08-27T02:55:24.325Z,19.65
2022-08-27T02:57:52.715Z,19.59
2022-08-27T03:00:25.025Z,19.54
2022-08-27T03:02:53.707Z,19.59
2022-08-27T03:05:22.381Z,19.56
2022-08-27T03:07:51.285Z,19.50
2022-08-27T03:10:21.768Z,19.54
2022-08-27T03:12:50.575Z,19.30
2022-08-27T03:15:20.995Z,19.68
2022-08-27T03:18:08.531Z,19.50
2022-08-27T03:20:40.897Z,19.61
2022-08-27T03:23:10.349Z,19.70
2022-08-27T03:25:39.444Z,19.51
2022-08-27T03:28:07.820Z,19.59
2022-08-27T03:30:53.149Z,19.60
2022-08-27T03:33:23.488Z,19.30
2022-08-27T03:35:52.436Z,19.01
2022-08-27T03:38:21.380Z,18.60
2022-08-27T03:40:50.485Z,18.62
2022-08-27T03:43:20.554Z,18.38
2022-08-27T03:46:01.442Z,18.40
2022-08-27T03:48:34.236Z,19.10
2022-08-27T03:51:06.908Z,18.96
2022-08-27T03:53:36.029Z,19.34
2022-08-27T03:56:05.393Z,19.25
2022-08-27T03:58:34.158Z,19.37
2022-08-27T04:01:02.749Z,19.15
2022-08-27T04:03:33.088Z,19.28
2022-08-27T04:06:01.809Z,19.18
2022-08-27T04:08:30.245Z,19.52
2022-08-27T04:10:58.650Z,19.68
2022-08-27T04:13:27.308Z,19.29
2022-08-27T04:15:56.746Z,19.45
2022-08-27T04:18:25.352Z,19.35
2022-08-27T04:20:55.669Z,19.66
2022-08-27T04:23:24.076Z,19.75
2022-08-27T04:25:52.443Z,19.86
2022-08-27T04:28:21.422Z,20.10
2022-08-27T04:30:49.860Z,20.31
2022-08-27T04:33:18.343Z,20.43
2022-08-27T04:35:46.781Z,20.59
2022-08-27T04:38:16.462Z,20.78
2022-08-27T04:41:01.904Z,20.67
2022-08-27T04:43:30.297Z,19.81
2022-08-27T04:45:58.697Z,19.78
2022-08-27T04:48:27.289Z,20.10
2022-08-27T04:50:55.704Z,19.86
2022-08-27T04:53:25.603Z,20.30
2022-08-27T04:55:56.404Z,20.68
2022-08-27T04:58:26.457Z,20.94
2022-08-27T05:00:56.589Z,21.02
2022-08-27T05:03:26.302Z,20.80
2022-08-27T05:06:00.133Z,20.69
2022-08-27T05:08:30.000Z,20.56
2022-08-27T05:10:58.740Z,20.33
2022-08-27T05:13:27.680Z,20.36
2022-08-27T05:16:00.988Z,19.20
2022-08-27T05:18:29.833Z,20.58
2022-08-27T05:20:58.476Z,20.38
2022-08-27T05:23:28.140Z,20.08
2022-08-27T05:25:58.819Z,19.88
2022-08-27T05:28:29.337Z,19.72
2022-08-27T05:31:08.426Z,19.68
2022-08-27T05:33:38.556Z,19.83
2022-08-27T05:36:08.374Z,19.75
2022-08-27T05:38:37.137Z,19.95
2022-08-27T05:41:10.389Z,19.95
2022-08-27T05:43:40.240Z,19.74
2022-08-27T05:46:12.166Z,20.31
2022-08-27T05:48:42.253Z,21.05
2022-08-27T05:51:19.780Z,20.98
2022-08-27T05:53:57.153Z,20.36
2022-08-27T05:56:29.887Z,21.34
2022-08-27T05:59:15.708Z,21.49
2022-08-27T06:01:46.549Z,21.34
2022-08-27T06:04:18.023Z,21.50
2022-08-27T06:06:47.033Z,21.97
2022-08-27T06:09:17.541Z,21.84
2022-08-27T06:11:48.295Z,22.32
2022-08-27T06:14:16.938Z,23.08
2022-08-27T06:16:45.367Z,22.92
2022-08-27T06:19:14.052Z,23.22
2022-08-27T06:21:43.262Z,23.71
2022-08-27T06:24:13.467Z,24.03
2022-08-27T06:26:42.859Z,24.00
2022-08-27T06:29:14.774Z,23.68
2022-08-27T06:31:43.782Z,24.20
2022-08-27T06:34:12.692Z,24.40
2022-08-27T06:36:43.064Z,24.64
2022-08-27T06:39:15.517Z,25.13
2022-08-27T06:41:45.629Z,25.28
2022-08-27T06:44:15.864Z,25.62
2022-08-27T06:46:45.214Z,25.92
2022-08-27T06:49:14.054Z,25.79
2022-08-27T06:51:46.952Z,26.25
2022-08-27T06:54:17.520Z,26.26
2022-08-27T06:56:46.035Z,26.16
2022-08-27T06:59:17.791Z,26.34
2022-08-27T07:01:49.418Z,26.24
2022-08-27T07:04:21.035Z,26.73
2022-08-27T07:06:51.113Z,26.88
2022-08-27T07:09:20.772Z,26.52
2022-08-27T07:11:49.235Z,27.35
2022-08-27T07:14:19.153Z,27.78
2022-08-27T07:16:48.299Z,28.03
2022-08-27T07:19:18.872Z,27.92
2022-08-27T07:21:49.605Z,27.83
2022-08-27T07:24:19.192Z,27.98
2022-08-27T07:26:47.621Z,28.15
2022-08-27T07:29:16.774Z,29.13
2022-08-27T07:31:46.582Z,28.28
2022-08-27T07:34:15.222Z,28.15
2022-08-27T07:36:43.543Z,28.48
2022-08-27T07:39:14.036Z,28.33
2022-08-27T07:41:56.195Z,28.99
2022-08-27T07:44:28.046Z,28.31
2022-08-27T07:47:00.932Z,28.50
2022-08-27T07:49:30.131Z,29.45
2022-08-27T07:51:58.523Z,28.82
2022-08-27T07:54:27.276Z,29.19
2022-08-27T07:56:56.272Z,29.98
2022-08-27T07:59:26.230Z,30.15
2022-08-27T08:01:55.102Z,30.06
2022-08-27T08:04:26.782Z,30.47
2022-08-27T08:06:55.785Z,31.02
2022-08-27T08:09:25.223Z,31.05
2022-08-27T08:11:54.327Z,31.02
2022-08-27T08:14:22.820Z,31.02
2022-08-27T08:16:51.546Z,31.31
2022-08-27T08:19:20.008Z,31.68
2022-08-27T08:21:52.969Z,31.42
2022-08-27T08:24:28.224Z,31.25
2022-08-27T08:26:56.584Z,31.02
2022-08-27T08:29:24.957Z,31.90
2022-08-27T08:31:53.361Z,31.76
2022-08-27T08:34:21.861Z,32.03
2022-08-27T08:36:55.042Z,31.21
2022-08-27T08:39:24.384Z,31.45
2022-08-27T08:41:55.480Z,31.75
2022-08-27T08:44:32.680Z,31.76
2022-08-27T08:47:08.368Z,33.34
2022-08-27T08:49:46.094Z,32.75
2022-08-27T08:52:31.512Z,32.74
2022-08-27T08:55:10.049Z,33.34
2022-08-27T08:57:43.476Z,32.78
2022-08-27T09:00:14.769Z,33.75
2022-08-27T09:02:50.612Z,34.03
2022-08-27T09:05:19.097Z,34.18
2022-08-27T09:08:21.282Z,34.15
2022-08-27T09:10:54.088Z,34.51
2022-08-27T09:13:26.537Z,34.74
2022-08-27T09:15:59.367Z,35.03
2022-08-27T09:18:27.993Z,35.12
2022-08-27T09:21:08.927Z,35.75
2022-08-27T09:23:46.852Z,36.68
2022-08-27T09:26:23.992Z,35.87
2022-08-27T09:29:15.552Z,34.73
2022-08-27T09:31:44.719Z,35.39
2022-08-27T09:34:13.172Z,34.67
2022-08-27T09:36:59.472Z,33.92
2022-08-27T09:39:36.396Z,35.16
2022-08-27T09:42:06.327Z,35.88
2022-08-27T09:44:49.143Z,35.89
2022-08-27T09:47:20.165Z,36.06
2022-08-27T09:49:49.126Z,35.45
2022-08-27T09:52:33.164Z,36.08
2022-08-27T09:55:08.422Z,36.57
2022-08-27T09:57:42.407Z,36.36
2022-08-27T10:00:17.054Z,36.64
2022-08-27T10:02:54.108Z,36.70
2022-08-27T10:05:29.273Z,37.57
2022-08-27T10:08:04.061Z,36.94
2022-08-27T10:10:45.511Z,36.66
2022-08-27T10:13:19.818Z,37.18
2022-08-27T10:16:02.469Z,37.33
2022-08-27T10:18:41.427Z,37.92
2022-08-27T10:21:17.249Z,38.48
2022-08-27T10:23:54.085Z,38.45
2022-08-27T10:26:31.948Z,37.30
2022-08-27T10:29:14.656Z,36.42
2022-08-27T10:31:53.700Z,36.40
2022-08-27T10:34:37.495Z,37.30
2022-08-27T10:37:15.238Z,36.48
2022-08-27T10:40:14.386Z,36.87
2022-08-27T10:42:57.478Z,38.09
2022-08-27T10:45:42.739Z,37.61
2022-08-27T10:48:24.634Z,37.69
2022-08-27T10:50:58.298Z,37.57
2022-08-27T10:53:38.470Z,37.52
2022-08-27T10:56:15.757Z,36.63
2022-08-27T10:59:07.388Z,37.57
2022-08-27T11:01:47.762Z,37.64
2022-08-27T11:04:21.721Z,37.47
2022-08-27T11:06:58.046Z,36.70
2022-08-27T11:09:38.006Z,37.37
2022-08-27T11:12:14.238Z,37.20
2022-08-27T11:14:49.488Z,37.60
2022-08-27T11:17:24.607Z,37.22
2022-08-27T11:19:58.332Z,37.18
2022-08-27T11:22:34.684Z,36.35
2022-08-27T11:25:11.060Z,36.74
2022-08-27T11:27:41.246Z,37.47
2022-08-27T11:30:18.142Z,37.36
2022-08-27T11:32:56.293Z,37.66
2022-08-27T11:35:34.755Z,38.04
2022-08-27T11:38:31.584Z,36.96
2022-08-27T11:41:18.052Z,36.47
2022-08-27T11:43:47.377Z,37.42
2022-08-27T11:46:25.242Z,38.07
2022-08-27T11:48:59.618Z,37.14
2022-08-27T11:51:33.213Z,37.18
2022-08-27T11:54:03.609Z,37.38
2022-08-27T11:56:40.714Z,35.97
2022-08-27T11:59:21.778Z,34.83
2022-08-27T12:01:53.539Z,34.92
2022-08-27T12:04:33.547Z,34.55
2022-08-27T12:07:06.300Z,34.20
2022-08-27T12:09:56.220Z,34.89
2022-08-27T12:12:49.973Z,35.64
2022-08-27T12:15:23.526Z,36.00
2022-08-27T12:18:10.433Z,35.97
2022-08-27T12:20:55.726Z,36.36
2022-08-27T12:23:43.985Z,36.47
2022-08-27T12:26:28.044Z,37.00
2022-08-27T12:29:27.905Z,37.87
2022-08-27T12:32:04.514Z,37.14
2022-08-27T12:34:45.421Z,37.51
2022-08-27T12:37:14.852Z,38.73
2022-08-27T12:39:49.523Z,38.19
2022-08-27T12:42:22.946Z,38.73
2022-08-27T12:44:56.268Z,38.93
2022-08-27T12:47:25.633Z,38.18
2022-08-27T12:49:58.354Z,38.44
2022-08-27T12:53:02.124Z,37.84
2022-08-27T12:55:41.317Z,38.28
2022-08-27T12:58:15.861Z,38.03
2022-08-27T13:01:07.846Z,38.04
2022-08-27T13:03:39.849Z,37.86
2022-08-27T13:06:20.722Z,38.36
2022-08-27T13:08:55.672Z,38.32
2022-08-27T13:11:26.775Z,37.99
2022-08-27T13:14:09.133Z,38.29
2022-08-27T13:16:46.860Z,37.43
2022-08-27T13:19:23.118Z,37.17
2022-08-27T13:21:54.630Z,37.27
2022-08-27T13:24:31.286Z,37.29
2022-08-27T13:26:59.978Z,37.27
2022-08-27T13:29:29.916Z,37.25
2022-08-27T13:32:00.008Z,37.82
2022-08-27T13:34:33.373Z,37.32
2022-08-27T13:37:06.243Z,37.39
2022-08-27T13:39:36.156Z,37.82
2022-08-27T13:42:07.093Z,37.41
2022-08-27T13:44:38.344Z,37.14
2022-08-27T13:47:09.269Z,36.04
2022-08-27T13:49:40.491Z,36.17
2022-08-27T13:52:22.428Z,35.95
2022-08-27T13:54:53.836Z,34.94
2022-08-27T13:57:26.190Z,33.26
2022-08-27T13:59:54.830Z,32.95
2022-08-27T14:02:29.065Z,32.47
2022-08-27T14:05:11.772Z,31.58
2022-08-27T14:07:47.625Z,31.64
2022-08-27T14:10:33.252Z,31.55
2022-08-27T14:13:04.162Z,30.79
2022-08-27T14:15:36.149Z,29.81
2022-08-27T14:18:06.854Z,28.91
2022-08-27T14:20:35.566Z,27.87
2022-08-27T14:23:05.736Z,28.42
2022-08-27T14:25:35.059Z,28.15
2022-08-27T14:28:03.759Z,27.62
2022-08-27T14:30:32.290Z,27.47
2022-08-27T14:33:03.007Z,27.93
2022-08-27T14:35:33.609Z,27.58
2022-08-27T14:38:08.113Z,27.64
2022-08-27T14:40:36.494Z,28.41
2022-08-27T14:43:05.316Z,27.88
2022-08-27T14:45:35.298Z,27.37
2022-08-27T14:48:04.378Z,27.41
2022-08-27T14:50:32.783Z,27.56
2022-08-27T14:53:01.300Z,26.92
2022-08-27T14:55:31.647Z,28.02
2022-08-27T14:58:00.409Z,27.60
2022-08-27T15:00:30.468Z,28.10
2022-08-27T15:02:59.209Z,28.47
2022-08-27T15:05:28.320Z,28.14
2022-08-27T15:07:58.156Z,28.13
2022-08-27T15:10:27.165Z,28.25
2022-08-27T15:12:57.015Z,28.36
2022-08-27T15:15:25.988Z,28.46
2022-08-27T15:17:54.275Z,28.63
2022-08-27T15:20:22.625Z,28.72
2022-08-27T15:22:53.254Z,28.90
2022-08-27T15:25:22.214Z,28.86
2022-08-27T15:27:50.629Z,28.94
2022-08-27T15:30:26.146Z,29.08
2022-08-27T15:32:54.569Z,29.06
2022-08-27T15:35:26.587Z,29.31
2022-08-27T15:37:56.761Z,29.42
2022-08-27T15:40:26.223Z,29.52
2022-08-27T15:42:58.093Z,29.43
2022-08-27T15:45:28.012Z,29.19
2022-08-27T15:47:56.689Z,29.04
2022-08-27T15:50:25.566Z,29.33
2022-08-27T15:53:00.951Z,29.62
2022-08-27T15:55:31.585Z,29.20
2022-08-27T15:58:00.149Z,28.00
2022-08-27T16:00:33.463Z,27.33
2022-08-27T16:03:02.648Z,27.14
2022-08-27T16:05:35.225Z,27.02
2022-08-27T16:08:04.430Z,27.10
2022-08-27T16:10:33.083Z,27.03
2022-08-27T16:13:01.739Z,26.75
2022-08-27T16:15:33.963Z,26.73
2022-08-27T16:18:03.898Z,26.99
2022-08-27T16:20:32.546Z,26.69
2022-08-27T16:23:01.230Z,26.66
2022-08-27T16:25:29.717Z,26.76
2022-08-27T16:28:01.077Z,26.91
2022-08-27T16:30:30.094Z,26.91
2022-08-27T16:33:00.271Z,27.08
2022-08-27T16:35:28.600Z,26.97
2022-08-27T16:37:57.481Z,26.55
2022-08-27T16:40:26.869Z,26.72
2022-08-27T16:42:55.729Z,26.84
2022-08-27T16:45:25.033Z,26.71
2022-08-27T16:48:10.997Z,26.81
2022-08-27T16:50:42.169Z,26.35
2022-08-27T16:53:13.987Z,26.25
2022-08-27T16:55:43.762Z,26.26
2022-08-27T16:58:19.177Z,26.21
2022-08-27T17:00:51.316Z,26.30
2022-08-27T17:03:20.804Z,26.43
2022-08-27T17:05:50.983Z,26.31
2022-08-27T17:08:20.863Z,26.12
2022-08-27T17:10:56.758Z,26.25
2022-08-27T17:13:28.264Z,26.13
2022-08-27T17:15:58.028Z,26.09
2022-08-27T17:18:32.901Z,26.04
2022-08-27T17:21:06.636Z,25.89
2022-08-27T17:23:38.192Z,25.88
2022-08-27T17:26:09.380Z,25.52
2022-08-27T17:28:39.859Z,25.64
2022-08-27T17:31:13.663Z,25.85
2022-08-27T17:33:45.049Z,25.83
2022-08-27T17:36:16.572Z,25.81
2022-08-27T17:38:45.361Z,25.72
2022-08-27T17:41:16.977Z,25.50
2022-08-27T17:43:45.436Z,25.56
2022-08-27T17:46:13.949Z,25.61
2022-08-27T17:48:42.723Z,25.59
2022-08-27T17:51:12.781Z,25.22
2022-08-27T17:53:48.305Z,24.55
2022-08-27T17:56:18.837Z,23.78
2022-08-27T17:58:51.548Z,24.63
2022-08-27T18:01:24.755Z,25.02
2022-08-27T18:03:58.107Z,24.89
2022-08-27T18:06:32.282Z,24.21
2022-08-27T18:09:03.043Z,22.91
2022-08-27T18:11:32.804Z,24.10
2022-08-27T18:14:04.889Z,22.71
2022-08-27T18:16:38.687Z,23.60
2022-08-27T18:19:07.848Z,23.70
2022-08-27T18:21:46.441Z,23.54
2022-08-27T18:24:16.678Z,23.84
2022-08-27T18:26:46.093Z,23.98
2022-08-27T18:29:16.494Z,24.39
2022-08-27T18:31:45.501Z,24.50
2022-08-27T18:34:18.812Z,24.23
2022-08-27T18:36:49.572Z,24.57
2022-08-27T18:39:19.400Z,24.45
2022-08-27T18:41:48.186Z,24.13
2022-08-27T18:44:17.757Z,23.70
2022-08-27T18:46:46.595Z,24.23
2022-08-27T18:49:15.046Z,24.38
2022-08-27T18:51:49.403Z,24.39
2022-08-27T18:54:23.153Z,24.46
2022-08-27T18:56:51.909Z,24.17
2022-08-27T18:59:20.425Z,24.26
2022-08-27T19:01:48.999Z,24.38
2022-08-27T19:04:19.071Z,24.35
2022-08-27T19:06:48.525Z,24.33
2022-08-27T19:09:22.472Z,24.10
2022-08-27T19:11:52.002Z,24.32
2022-08-27T19:14:20.307Z,24.35
2022-08-27T19:16:55.976Z,23.93
2022-08-27T19:19:26.195Z,24.12
2022-08-27T19:21:54.702Z,24.10
2022-08-27T19:24:24.518Z,24.09
2022-08-27T19:26:54.351Z,24.22
2022-08-27T19:29:22.756Z,24.21
2022-08-27T19:31:51.167Z,24.36
2022-08-27T19:34:20.220Z,24.34
2022-08-27T19:36:48.625Z,24.21
2022-08-27T19:39:17.376Z,24.15
2022-08-27T19:41:47.107Z,23.88
2022-08-27T19:44:34.961Z,23.91
2022-08-27T19:47:03.849Z,24.01
2022-08-27T19:49:33.072Z,24.05
2022-08-27T19:52:04.993Z,23.93
2022-08-27T19:54:51.747Z,23.89
2022-08-27T19:57:25.811Z,23.72
2022-08-27T19:59:54.217Z,23.66
2022-08-27T20:02:22.592Z,23.72
2022-08-27T20:05:14.347Z,23.69
2022-08-27T20:07:39.417Z,23.77
2022-08-27T20:10:08.872Z,23.69
2022-08-27T20:12:39.057Z,23.70
2022-08-27T20:15:08.684Z,23.63
2022-08-27T20:17:37.135Z,23.51
2022-08-27T20:20:07.423Z,23.17
2022-08-27T20:22:35.808Z,23.25
2022-08-27T20:25:04.342Z,23.44
2022-08-27T20:27:32.705Z,23.61
2022-08-27T20:30:04.770Z,23.44
2022-08-27T20:32:35.508Z,23.53
2022-08-27T20:35:03.977Z,23.32
2022-08-27T20:37:32.712Z,23.00
2022-08-27T20:40:01.177Z,22.97
2022-08-27T20:42:29.818Z,22.91
2022-08-27T20:44:58.190Z,22.86
2022-08-27T20:47:29.506Z,22.90
2022-08-27T20:49:58.289Z,23.06
2022-08-27T20:52:27.669Z,22.99
2022-08-27T20:54:56.039Z,22.89
2022-08-27T20:57:24.425Z,22.88
2022-08-27T21:00:10.270Z,22.93
2022-08-27T21:02:41.585Z,22.88
2022-08-27T21:05:14.889Z,22.76
2022-08-27T21:07:44.662Z,22.74
2022-08-27T21:10:13.166Z,22.62
2022-08-27T21:12:41.777Z,22.71
2022-08-27T21:15:11.291Z,22.77
2022-08-27T21:17:41.474Z,22.81
2022-08-27T21:20:12.249Z,22.77
2022-08-27T21:22:41.930Z,22.60
2022-08-27T21:25:12.705Z,22.64
2022-08-27T21:27:41.310Z,22.49
2022-08-27T21:30:12.116Z,22.44
2022-08-27T21:32:41.998Z,22.64
2022-08-27T21:35:11.261Z,22.60
2022-08-27T21:37:39.691Z,22.29
2022-08-27T21:40:09.548Z,22.54
2022-08-27T21:42:37.998Z,22.30
2022-08-27T21:45:07.471Z,22.30
2022-08-27T21:47:36.819Z,22.43
2022-08-27T21:50:09.967Z,22.56
2022-08-27T21:52:38.471Z,22.71
2022-08-27T21:55:08.448Z,22.82
2022-08-27T21:57:36.832Z,22.70
2022-08-27T22:00:16.125Z,22.71
2022-08-27T22:02:44.647Z,22.72
2022-08-27T22:05:14.561Z,22.67
2022-08-27T22:07:42.948Z,22.47
2022-08-27T22:10:11.501Z,22.38
2022-08-27T22:12:40.429Z,22.20
2022-08-27T22:15:11.230Z,22.07
2022-08-27T22:17:39.736Z,22.05
2022-08-27T22:20:10.574Z,22.49
2022-08-27T22:22:40.576Z,22.42
2022-08-27T22:25:09.785Z,22.68
2022-08-27T22:27:38.293Z,22.24
2022-08-27T22:30:11.129Z,22.37
2022-08-27T22:32:40.164Z,22.54
2022-08-27T22:35:09.717Z,22.68
2022-08-27T22:37:39.608Z,22.30
2022-08-27T22:40:19.370Z,22.20
2022-08-27T22:42:48.867Z,22.27
2022-08-27T22:45:17.580Z,21.96
2022-08-27T22:47:46.089Z,22.30
2022-08-27T22:50:15.090Z,22.13
2022-08-27T22:52:45.525Z,22.22
2022-08-27T22:55:16.400Z,22.06
2022-08-27T22:57:44.825Z,21.93
2022-08-27T23:00:19.047Z,21.87
2022-08-27T23:02:47.564Z,21.96
2022-08-27T23:05:17.299Z,22.17
2022-08-27T23:07:47.536Z,22.32
2022-08-27T23:10:18.381Z,22.37
2022-08-27T23:12:47.266Z,22.35
2022-08-27T23:15:18.777Z,22.07
2022-08-27T23:17:47.142Z,22.06
2022-08-27T23:20:16.205Z,21.97
2022-08-27T23:22:45.651Z,22.05
2022-08-27T23:25:33.744Z,21.99
2022-08-27T23:28:06.191Z,21.94
2022-08-27T23:30:36.145Z,22.14
2022-08-27T23:33:05.064Z,22.26
2022-08-27T23:35:33.718Z,22.20
2022-08-27T23:38:02.092Z,22.20
2022-08-27T23:40:32.002Z,22.28
2022-08-27T23:43:00.406Z,22.23
2022-08-27T23:45:29.108Z,21.35
2022-08-27T23:47:57.428Z,20.80
2022-08-27T23:50:33.779Z,21.14
2022-08-27T23:53:02.657Z,21.26
2022-08-27T23:55:33.693Z,21.33
2022-08-27T23:58:02.652Z,21.52
